createdAt,value
2022-10-31T00:03:26.083Z,100
2022-10-31T00:13:26.122Z,100
2022-10-31T00:23:26.069Z,100
2022-10-31T00:33:26.102Z,100
2022-10-31T00:43:26.083Z,100
2022-10-31T00:53:26.130Z,100
2022-10-31T01:03:26.084Z,100
2022-10-31T01:13:26.113Z,100
2022-10-31T01:23:26.152Z,100
2022-10-31T01:33:26.097Z,100
2022-10-31T01:43:26.089Z,100
2022-10-31T01:53:26.918Z,100
2022-10-31T02:03:26.075Z,100
2022-10-31T02:23:26.047Z,100
2022-10-31T02:33:26.079Z,100
2022-10-31T02:43:26.049Z,100
2022-10-31T02:53:26.084Z,100
2022-10-31T03:03:26.062Z,100
2022-10-31T03:13:26.088Z,100
2022-10-31T03:23:26.066Z,100
2022-10-31T03:33:26.060Z,100
2022-10-31T03:43:26.123Z,100
2022-10-31T03:53:26.079Z,100
2022-10-31T04:03:26.036Z,100
2022-10-31T04:13:26.059Z,100
2022-10-31T04:23:26.028Z,100
2022-10-31T04:33:26.059Z,100
2022-10-31T04:43:26.020Z,100
2022-10-31T04:53:26.055Z,100
2022-10-31T05:03:26.033Z,100
2022-10-31T05:13:26.052Z,100
2022-10-31T05:23:26.036Z,100
2022-10-31T05:33:26.086Z,100
2022-10-31T05:43:26.031Z,100
2022-10-31T05:53:26.059Z,100
2022-10-31T06:03:26.051Z,100
2022-10-31T06:13:26.077Z,100
2022-10-31T06:23:26.068Z,100
2022-10-31T06:33:26.062Z,100
2022-10-31T06:43:26.043Z,100
2022-10-31T06:53:26.073Z,100
2022-10-31T07:03:26.049Z,100
2022-10-31T07:13:26.071Z,100
2022-10-31T07:23:26.034Z,100
2022-10-31T07:33:26.030Z,100
2022-10-31T07:43:26.028Z,100
2022-10-31T07:53:26.036Z,100
2022-10-31T08:03:26.018Z,100
2022-10-31T08:13:26.028Z,100
2022-10-31T08:23:26.008Z,100
2022-10-31T08:33:26.032Z,100
2022-10-31T08:43:26.013Z,100
2022-10-31T08:53:26.036Z,100
2022-10-31T09:03:26.011Z,100
2022-10-31T09:13:28.069Z,100
2022-10-31T09:23:25.973Z,100
2022-10-31T09:33:25.996Z,100
2022-10-31T09:43:25.966Z,100
2022-10-31T09:53:25.991Z,91
2022-10-31T10:03:25.945Z,93
2022-10-31T10:13:25.940Z,75
2022-10-31T10:23:25.925Z,68
2022-10-31T10:33:25.943Z,67
2022-10-31T10:43:25.868Z,63
2022-10-31T10:53:25.905Z,65
2022-10-31T11:03:25.896Z,61
2022-10-31T11:13:25.866Z,61
2022-10-31T11:23:25.867Z,59
2022-10-31T11:33:25.864Z,65
2022-10-31T11:43:25.846Z,66
2022-10-31T11:53:25.860Z,67
2022-10-31T12:03:25.803Z,71
2022-10-31T12:13:25.834Z,68
2022-10-31T12:23:25.806Z,68
2022-10-31T12:33:25.805Z,65
2022-10-31T12:43:25.792Z,64
2022-10-31T12:53:25.786Z,64
2022-10-31T13:03:25.770Z,66
2022-10-31T13:13:25.756Z,66
2022-10-31T13:23:48.885Z,67
2022-10-31T13:33:25.737Z,65
2022-10-31T13:43:25.726Z,67
2022-10-31T13:53:25.732Z,68
2022-10-31T14:03:36.561Z,74
2022-10-31T14:13:25.717Z,74
2022-10-31T14:23:25.711Z,76
2022-10-31T14:33:25.730Z,83
2022-10-31T14:43:25.675Z,93
2022-10-31T14:53:25.703Z,100
2022-10-31T15:03:25.691Z,100
2022-10-31T15:13:25.776Z,100
2022-10-31T15:23:25.655Z,100
2022-10-31T15:33:37.788Z,100
2022-10-31T15:43:25.719Z,100
2022-10-31T15:53:25.637Z,100
2022-10-31T16:03:25.661Z,100
2022-10-31T16:13:25.635Z,100
2022-10-31T16:23:25.644Z,100
2022-10-31T16:33:25.613Z,100
2022-10-31T16:43:25.624Z,100
2022-10-31T16:53:25.600Z,100
2022-10-31T17:03:25.643Z,100
2022-10-31T17:13:25.592Z,100
2022-10-31T17:23:25.599Z,100
2022-10-31T17:33:25.591Z,100
2022-10-31T17:43:25.603Z,100
2022-10-31T17:53:33.339Z,100
2022-10-31T18:03:25.561Z,100
2022-10-31T18:13:25.552Z,100
2022-10-31T18:23:25.565Z,100
2022-10-31T18:33:25.534Z,100
2022-10-31T18:43:25.584Z,100
2022-10-31T18:53:25.541Z,100
2022-10-31T19:03:26.284Z,100
2022-10-31T19:13:25.522Z,100
2022-10-31T19:23:25.565Z,100
2022-10-31T19:33:25.545Z,100
2022-10-31T19:43:25.588Z,100
2022-10-31T19:53:25.537Z,100
2022-10-31T20:13:25.523Z,100
2022-10-31T20:23:25.547Z,100
2022-10-31T20:33:25.551Z,100
2022-10-31T20:43:25.503Z,100
2022-10-31T20:53:25.525Z,100
2022-10-31T21:03:25.493Z,100
2022-10-31T21:13:25.527Z,100
2022-10-31T21:23:25.480Z,100
2022-10-31T21:33:25.526Z,100
2022-10-31T21:43:25.502Z,100
2022-10-31T21:53:25.517Z,100
2022-10-31T22:03:25.450Z,100
2022-10-31T22:13:25.505Z,100
2022-10-31T22:23:25.483Z,100
2022-10-31T22:33:25.514Z,100
2022-10-31T22:43:25.481Z,100
2022-10-31T22:53:25.503Z,100
2022-10-31T23:03:25.524Z,100
2022-10-31T23:13:25.508Z,100
2022-10-31T23:23:25.478Z,100
2022-10-31T23:33:29.139Z,100
2022-10-31T23:43:25.457Z,100
2022-10-31T23:53:25.515Z,100
